createdAt,value
2022-08-17T00:02:26.258Z,20.50
2022-08-17T00:07:31.064Z,20.40
2022-08-17T00:12:44.549Z,20.26
2022-08-17T00:17:48.672Z,20.22
2022-08-17T00:23:03.962Z,20.19
2022-08-17T00:28:07.589Z,20.15
2022-08-17T00:33:23.149Z,20.12
2022-08-17T00:38:29.358Z,20.11
2022-08-17T00:43:35.542Z,20.06
2022-08-17T00:48:39.261Z,20.01
2022-08-17T00:53:48.485Z,19.92
2022-08-17T00:58:53.237Z,19.86
2022-08-17T01:04:00.029Z,19.83
2022-08-17T01:09:06.107Z,19.81
2022-08-17T01:14:09.875Z,19.84
2022-08-17T01:19:18.277Z,19.88
2022-08-17T01:24:22.671Z,19.96
2022-08-17T01:29:26.623Z,20.03
2022-08-17T01:34:42.428Z,20.12
2022-08-17T01:39:51.474Z,20.17
2022-08-17T01:44:57.957Z,20.19
2022-08-17T01:50:07.503Z,20.23
2022-08-17T01:55:11.984Z,20.25
2022-08-17T02:00:15.829Z,20.23
2022-08-17T02:05:18.470Z,20.20
2022-08-17T02:10:22.820Z,20.07
2022-08-17T02:15:25.819Z,19.93
2022-08-17T02:20:41.303Z,19.76
2022-08-17T02:25:48.836Z,19.62
2022-08-17T02:31:01.562Z,19.53
2022-08-17T02:36:06.423Z,19.37
2022-08-17T02:41:13.003Z,19.26
2022-08-17T02:46:15.565Z,19.17
2022-08-17T02:51:18.115Z,19.02
2022-08-17T02:56:22.034Z,18.93
2022-08-17T03:01:24.632Z,18.88
2022-08-17T03:06:28.441Z,18.84
2022-08-17T03:11:32.384Z,18.84
2022-08-17T03:16:35.067Z,18.85
2022-08-17T03:21:39.044Z,18.95
2022-08-17T03:26:42.930Z,19.08
2022-08-17T03:31:46.523Z,19.16
2022-08-17T03:36:49.074Z,19.26
2022-08-17T03:41:53.012Z,19.29
2022-08-17T03:47:13.551Z,19.35
2022-08-17T03:52:33.975Z,19.32
2022-08-17T03:57:37.955Z,19.30
2022-08-17T04:02:41.806Z,19.27
2022-08-17T04:07:45.472Z,19.22
2022-08-17T04:12:54.502Z,19.23
2022-08-17T04:17:57.061Z,19.21
2022-08-17T04:23:03.110Z,19.26
2022-08-17T04:28:14.565Z,19.35
2022-08-17T04:33:21.053Z,19.38
2022-08-17T04:38:26.740Z,19.36
2022-08-17T04:43:32.533Z,19.39
2022-08-17T04:48:38.849Z,19.42
2022-08-17T04:53:44.106Z,19.51
2022-08-17T04:58:51.374Z,19.58
2022-08-17T05:03:56.114Z,19.63
2022-08-17T05:08:59.898Z,19.67
2022-08-17T05:14:04.607Z,19.75
2022-08-17T05:19:07.271Z,19.82
2022-08-17T05:24:38.169Z,20.01
2022-08-17T05:29:35.743Z,20.29
2022-08-17T05:34:39.151Z,20.45
2022-08-17T05:39:41.910Z,20.86
2022-08-17T05:44:45.749Z,21.09
2022-08-17T05:49:49.041Z,21.44
2022-08-17T05:55:04.347Z,21.85
2022-08-17T06:00:16.976Z,22.34
2022-08-17T06:05:45.453Z,22.59
2022-08-17T06:10:57.961Z,23.19
2022-08-17T06:16:33.019Z,23.19
2022-08-17T06:21:34.238Z,23.38
2022-08-17T06:26:43.153Z,23.44
2022-08-17T06:31:47.782Z,23.34
2022-08-17T06:36:59.146Z,23.35
2022-08-17T06:43:02.437Z,24.38
2022-08-17T06:47:47.405Z,26.16
2022-08-17T06:52:58.061Z,25.18
2022-08-17T06:58:16.186Z,24.32
2022-08-17T07:03:29.191Z,24.79
2022-08-17T07:08:39.287Z,25.12
2022-08-17T07:13:51.410Z,24.66
2022-08-17T07:18:56.894Z,25.89
2022-08-17T07:24:29.189Z,25.68
2022-08-17T07:29:36.488Z,24.73
2022-08-17T07:35:15.404Z,23.90
2022-08-17T07:40:26.398Z,23.35
2022-08-17T07:45:48.629Z,23.32
2022-08-17T07:50:54.055Z,23.76
2022-08-17T07:55:56.866Z,24.07
2022-08-17T08:01:09.725Z,25.11
2022-08-17T08:06:23.572Z,26.52
2022-08-17T08:11:34.498Z,26.78
2022-08-17T08:16:37.363Z,26.17
2022-08-17T08:21:56.317Z,25.99
2022-08-17T08:27:08.739Z,25.77
2022-08-17T08:32:19.358Z,26.16
2022-08-17T08:37:37.963Z,26.00
2022-08-17T08:42:50.620Z,26.34
2022-08-17T08:48:23.025Z,26.77
2022-08-17T08:53:43.383Z,27.07
2022-08-17T08:58:52.796Z,27.56
2022-08-17T09:04:25.049Z,27.71
2022-08-17T09:09:45.405Z,28.40
2022-08-17T09:14:55.422Z,28.00
2022-08-17T09:20:04.928Z,28.25
2022-08-17T09:25:12.264Z,28.16
2022-08-17T09:30:15.277Z,27.57
2022-08-17T09:35:22.787Z,27.63
2022-08-17T09:40:29.988Z,28.06
2022-08-17T09:45:36.420Z,28.28
2022-08-17T09:51:03.940Z,28.30
2022-08-17T09:56:23.983Z,28.41
2022-08-17T10:01:36.395Z,28.15
2022-08-17T10:06:50.829Z,27.09
2022-08-17T10:12:20.452Z,27.13
2022-08-17T10:17:29.453Z,27.17
2022-08-17T10:22:59.471Z,27.13
2022-08-17T10:28:10.693Z,26.41
2022-08-17T10:33:27.846Z,26.30
2022-08-17T10:38:38.576Z,26.11
2022-08-17T10:44:35.428Z,25.89
2022-08-17T10:49:33.835Z,25.78
2022-08-17T10:54:46.583Z,25.62
2022-08-17T10:59:52.877Z,25.59
2022-08-17T11:05:18.795Z,25.68
2022-08-17T11:10:51.941Z,25.77
2022-08-17T11:16:08.860Z,25.96
2022-08-17T11:21:37.679Z,25.93
2022-08-17T11:26:46.233Z,25.88
2022-08-17T11:32:05.037Z,25.99
2022-08-17T11:37:33.105Z,26.35
2022-08-17T11:42:54.254Z,26.29
2022-08-17T11:48:28.454Z,26.22
2022-08-17T11:54:31.566Z,25.72
2022-08-17T11:59:58.648Z,25.77
2022-08-17T12:05:26.075Z,25.70
2022-08-17T12:10:32.435Z,25.49
2022-08-17T12:15:40.330Z,25.47
2022-08-17T12:20:50.948Z,25.87
2022-08-17T12:26:00.592Z,25.98
2022-08-17T12:31:05.768Z,25.61
2022-08-17T12:36:15.875Z,25.04
2022-08-17T12:41:32.093Z,24.83
2022-08-17T12:46:47.411Z,24.67
2022-08-17T12:51:57.531Z,24.16
2022-08-17T12:57:06.357Z,23.74
2022-08-17T13:02:19.791Z,23.33
2022-08-17T13:07:35.100Z,22.46
2022-08-17T13:12:37.779Z,22.09
2022-08-17T13:17:40.615Z,22.04
2022-08-17T13:22:45.293Z,21.83
2022-08-17T13:27:51.581Z,21.73
2022-08-17T13:32:55.917Z,21.59
2022-08-17T13:38:05.470Z,21.07
2022-08-17T13:43:08.969Z,20.97
2022-08-17T13:48:20.495Z,20.99
2022-08-17T13:53:27.597Z,21.06
2022-08-17T13:58:33.315Z,21.05
2022-08-17T14:03:36.301Z,21.02
2022-08-17T14:08:40.389Z,20.99
2022-08-17T14:13:43.095Z,21.06
2022-08-17T14:18:56.819Z,21.13
2022-08-17T14:24:01.395Z,21.31
2022-08-17T14:29:04.039Z,21.42
2022-08-17T14:34:17.737Z,21.46
2022-08-17T14:39:22.333Z,21.71
2022-08-17T14:44:25.117Z,22.07
2022-08-17T14:49:28.125Z,22.39
2022-08-17T14:54:34.057Z,22.59
2022-08-17T14:59:37.306Z,22.93
2022-08-17T15:04:48.043Z,23.03
2022-08-17T15:09:52.439Z,23.62
2022-08-17T15:14:55.208Z,23.68
2022-08-17T15:19:57.893Z,24.19
2022-08-17T15:25:05.769Z,24.12
2022-08-17T15:30:10.488Z,24.25
2022-08-17T15:35:13.971Z,24.13
2022-08-17T15:40:18.084Z,23.56
2022-08-17T15:45:24.662Z,23.10
2022-08-17T15:50:27.406Z,22.69
2022-08-17T15:55:33.387Z,22.37
2022-08-17T16:00:51.582Z,22.36
2022-08-17T16:06:00.464Z,22.10
2022-08-17T16:11:05.080Z,22.04
2022-08-17T16:16:08.392Z,21.87
2022-08-17T16:21:31.315Z,21.72
2022-08-17T16:26:49.048Z,21.83
2022-08-17T16:31:52.208Z,22.02
2022-08-17T16:36:56.505Z,22.00
2022-08-17T16:42:02.707Z,21.69
2022-08-17T16:47:07.414Z,21.38
2022-08-17T16:52:11.395Z,21.19
2022-08-17T16:57:17.520Z,21.00
2022-08-17T17:02:29.559Z,20.62
2022-08-17T17:07:53.436Z,20.47
2022-08-17T17:13:02.489Z,20.48
2022-08-17T17:18:12.613Z,20.57
2022-08-17T17:23:31.136Z,20.73
2022-08-17T17:28:44.187Z,20.69
2022-08-17T17:33:52.490Z,20.60
2022-08-17T17:39:00.583Z,20.45
2022-08-17T17:44:09.037Z,20.23
2022-08-17T17:49:14.205Z,20.12
2022-08-17T17:54:33.323Z,20.00
2022-08-17T17:59:44.829Z,19.87
2022-08-17T18:05:00.660Z,19.78
2022-08-17T18:10:19.573Z,19.70
2022-08-17T18:15:37.873Z,19.57
2022-08-17T18:20:53.479Z,19.46
2022-08-17T18:25:59.415Z,19.44
2022-08-17T18:31:20.623Z,19.54
2022-08-17T18:36:28.998Z,19.67
2022-08-17T18:41:41.527Z,19.76
2022-08-17T18:46:45.599Z,19.79
2022-08-17T18:51:50.333Z,19.72
2022-08-17T18:56:55.752Z,19.70
2022-08-17T19:02:16.096Z,19.65
2022-08-17T19:07:29.293Z,19.62
2022-08-17T19:12:38.144Z,19.50
2022-08-17T19:17:47.779Z,19.41
2022-08-17T19:23:01.896Z,19.47
2022-08-17T19:28:21.684Z,19.51
2022-08-17T19:33:27.482Z,19.51
2022-08-17T19:38:41.477Z,19.35
2022-08-17T19:44:09.811Z,19.24
2022-08-17T19:49:22.092Z,19.12
2022-08-17T19:54:47.255Z,18.98
2022-08-17T19:59:57.538Z,18.81
2022-08-17T20:05:06.597Z,18.70
2022-08-17T20:10:14.496Z,18.76
2022-08-17T20:15:25.462Z,18.67
2022-08-17T20:20:37.756Z,18.72
2022-08-17T20:25:47.308Z,18.86
2022-08-17T20:30:50.780Z,18.92
2022-08-17T20:36:18.722Z,18.98
2022-08-17T20:41:22.961Z,18.97
2022-08-17T20:46:42.350Z,18.98
2022-08-17T20:52:01.420Z,18.97
2022-08-17T20:57:09.224Z,18.95
2022-08-17T21:02:21.363Z,18.96
2022-08-17T21:07:30.027Z,18.98
2022-08-17T21:12:44.737Z,19.01
2022-08-17T21:17:51.346Z,19.01
2022-08-17T21:23:12.341Z,19.02
2022-08-17T21:28:30.017Z,19.12
2022-08-17T21:33:38.978Z,19.09
2022-08-17T21:38:57.644Z,19.13
2022-08-17T21:44:06.357Z,19.14
2022-08-17T21:49:13.958Z,19.01
2022-08-17T21:54:31.883Z,18.84
2022-08-17T21:59:38.390Z,18.81
2022-08-17T22:04:42.542Z,18.72
2022-08-17T22:09:48.236Z,18.70
2022-08-17T22:15:00.429Z,18.58
2022-08-17T22:20:08.610Z,18.40
2022-08-17T22:25:22.456Z,18.30
2022-08-17T22:30:33.362Z,18.30
2022-08-17T22:35:41.670Z,18.35
2022-08-17T22:40:49.669Z,18.46
2022-08-17T22:45:55.523Z,18.49
2022-08-17T22:51:12.849Z,18.55
2022-08-17T22:56:38.494Z,18.64
2022-08-17T23:01:42.943Z,18.69
2022-08-17T23:06:45.535Z,18.73
2022-08-17T23:11:53.419Z,18.77
2022-08-17T23:16:56.290Z,18.80
2022-08-17T23:21:59.581Z,18.83
2022-08-17T23:27:07.322Z,18.79
2022-08-17T23:32:12.231Z,18.81
2022-08-17T23:37:15.437Z,18.79
2022-08-17T23:42:22.024Z,18.79
2022-08-17T23:47:24.665Z,18.76
2022-08-17T23:52:27.973Z,18.69
2022-08-17T23:57:33.780Z,18.68
